KHTS/HTS METAR and TAF weather

Enter ICAO airport designator
Station Type Date Time Source
KHTS METAR 2022/12/08 11:51 UTC NOAA

KHTS 081151Z 04005KT 10SM OVC019 09/06 A3028 RMK AO2 SLP252 T00940061 10117 20094 58008


Station Type Date Time Source
KHTS Decoded METAR 2022/12/08 11:51 UTC NOAA

TRI-STATE AIRPORT, WV, United States (KHTS) 38-22N 082-33W 254M
Dec 08, 2022 - 06:51 AM EST / 2022.12.08 1151 UTC
Wind: from the NE (040 degrees) at 6 MPH (5 KT):0
Visibility: 10 mile(s):0
Sky conditions: overcast
Temperature: 48.9 F (9.4 C)
Dew Point: 43.0 F (6.1 C)
Relative Humidity: 79%
Pressure (altimeter): 30.28 in. Hg (1025 hPa)
Pressure tendency: 0.02 inches (0.8 hPa) lower than three hours ago
ob: KHTS 081151Z 04005KT 10SM OVC019 09/06 A3028 RMK AO2 SLP252 T00940061 10117 20094 58008
cycle: 12

Station Type Date Time Source
KHTS TAF 2022/12/08 12:22 UTC NOAA

TAF KHTS 081120Z 0812/0912 03004KT P6SM OVC014
TEMPO 0817/0818 4SM -SHRA BR OVC008
FM081800 05006KT P6SM -SHRA OVC012
FM082100 05005KT 6SM BR OVC008
FM090000 05006KT P6SM OVC012
FM090300 05005KT P6SM SCT018 OVC025

Example: see airport list